sensor_id;sensor_type;location;lat;lon;timestamp;pressure;altitude;pressure_sealevel;temperature;humidity
1652;BME280;823;49.028;8.454;2022-12-31T00:01:25;100117.03;;;16.69;60.81
1652;BME280;823;49.028;8.454;2022-12-31T00:06:28;100113.72;;;16.67;60.94
1652;BME280;823;49.028;8.454;2022-12-31T00:11:30;100116.78;;;16.59;61.51
1652;BME280;823;49.028;8.454;2022-12-31T00:16:33;100112.59;;;16.57;61.52
1652;BME280;823;49.028;8.454;2022-12-31T00:21:36;100117.09;;;16.55;61.93
1652;BME280;823;49.028;8.454;2022-12-31T00:26:36;100117.44;;;16.63;62.11
1652;BME280;823;49.028;8.454;2022-12-31T00:31:37;100145.66;;;16.71;61.72
1652;BME280;823;49.028;8.454;2022-12-31T00:36:38;100141.28;;;16.71;62.48
1652;BME280;823;49.028;8.454;2022-12-31T00:41:39;100153.69;;;16.53;63.35
1652;BME280;823;49.028;8.454;2022-12-31T00:46:39;100156.41;;;16.51;63.31
1652;BME280;823;49.028;8.454;2022-12-31T00:51:40;100157.53;;;16.47;63.56
1652;BME280;823;49.028;8.454;2022-12-31T00:56:40;100155.69;;;16.49;63.03
1652;BME280;823;49.028;8.454;2022-12-31T01:01:41;100174.69;;;16.66;62.15
1652;BME280;823;49.028;8.454;2022-12-31T01:06:42;100177.66;;;16.74;61.60
1652;BME280;823;49.028;8.454;2022-12-31T01:11:43;100182.50;;;16.51;62.27
1652;BME280;823;49.028;8.454;2022-12-31T01:16:47;100180.19;;;16.61;62.33
1652;BME280;823;49.028;8.454;2022-12-31T01:21:48;100205.75;;;16.56;62.26
1652;BME280;823;49.028;8.454;2022-12-31T01:26:49;100197.44;;;16.78;61.38
1652;BME280;823;49.028;8.454;2022-12-31T01:31:50;100198.72;;;16.85;60.72
1652;BME280;823;49.028;8.454;2022-12-31T01:36:50;100198.72;;;17.00;60.17
1652;BME280;823;49.028;8.454;2022-12-31T01:41:51;100202.84;;;16.90;59.27
1652;BME280;823;49.028;8.454;2022-12-31T01:46:54;100212.03;;;17.10;58.42
1652;BME280;823;49.028;8.454;2022-12-31T01:52:32;100213.00;;;17.36;57.32
1652;BME280;823;49.028;8.454;2022-12-31T01:57:25;100205.50;;;17.17;57.28
1652;BME280;823;49.028;8.454;2022-12-31T02:02:26;100207.69;;;16.96;57.40
1652;BME280;823;49.028;8.454;2022-12-31T02:07:26;100213.03;;;17.22;56.47
1652;BME280;823;49.028;8.454;2022-12-31T02:12:26;100227.66;;;17.11;56.61
1652;BME280;823;49.028;8.454;2022-12-31T02:17:59;100225.28;;;17.48;55.51
1652;BME280;823;49.028;8.454;2022-12-31T02:23:23;100220.44;;;17.42;55.31
1652;BME280;823;49.028;8.454;2022-12-31T02:28:33;100225.81;;;17.53;55.11
1652;BME280;823;49.028;8.454;2022-12-31T02:34:05;100220.22;;;17.73;54.54
1652;BME280;823;49.028;8.454;2022-12-31T02:39:05;100227.44;;;17.69;54.29
1652;BME280;823;49.028;8.454;2022-12-31T02:49:40;100212.41;;;17.85;54.03
1652;BME280;823;49.028;8.454;2022-12-31T02:54:49;100213.31;;;18.12;53.13
1652;BME280;823;49.028;8.454;2022-12-31T02:59:56;100224.81;;;17.96;53.45
1652;BME280;823;49.028;8.454;2022-12-31T03:05:20;100226.72;;;18.33;52.79
1652;BME280;823;49.028;8.454;2022-12-31T03:10:21;100223.59;;;18.28;53.45
1652;BME280;823;49.028;8.454;2022-12-31T03:15:25;100225.03;;;18.06;54.05
1652;BME280;823;49.028;8.454;2022-12-31T03:20:38;100231.84;;;18.21;53.45
1652;BME280;823;49.028;8.454;2022-12-31T03:25:58;100226.63;;;18.21;53.36
1652;BME280;823;49.028;8.454;2022-12-31T03:31:00;100238.44;;;18.01;53.95
1652;BME280;823;49.028;8.454;2022-12-31T03:36:07;100235.72;;;18.29;53.40
1652;BME280;823;49.028;8.454;2022-12-31T03:41:09;100230.69;;;18.26;53.72
1652;BME280;823;49.028;8.454;2022-12-31T03:46:09;100238.16;;;18.32;53.42
1652;BME280;823;49.028;8.454;2022-12-31T03:51:10;100225.25;;;18.29;53.72
1652;BME280;823;49.028;8.454;2022-12-31T03:56:10;100237.41;;;18.30;53.69
1652;BME280;823;49.028;8.454;2022-12-31T04:01:10;100230.50;;;18.42;53.38
1652;BME280;823;49.028;8.454;2022-12-31T04:06:11;100239.19;;;18.29;53.56
1652;BME280;823;49.028;8.454;2022-12-31T04:11:11;100250.09;;;18.36;53.49
1652;BME280;823;49.028;8.454;2022-12-31T04:16:11;100243.59;;;18.54;53.23
1652;BME280;823;49.028;8.454;2022-12-31T04:21:11;100218.56;;;18.37;53.71
1652;BME280;823;49.028;8.454;2022-12-31T04:26:12;100238.84;;;18.47;53.79
1652;BME280;823;49.028;8.454;2022-12-31T04:31:12;100232.47;;;18.51;53.76
1652;BME280;823;49.028;8.454;2022-12-31T04:36:12;100236.78;;;18.52;53.71
1652;BME280;823;49.028;8.454;2022-12-31T04:41:13;100234.88;;;18.41;53.89
1652;BME280;823;49.028;8.454;2022-12-31T04:46:19;100246.59;;;18.48;53.51
1652;BME280;823;49.028;8.454;2022-12-31T04:51:20;100263.16;;;18.62;53.15
1652;BME280;823;49.028;8.454;2022-12-31T04:56:21;100262.66;;;18.31;53.92
1652;BME280;823;49.028;8.454;2022-12-31T05:01:21;100262.44;;;18.34;53.93
1652;BME280;823;49.028;8.454;2022-12-31T05:06:22;100255.22;;;18.50;53.38
1652;BME280;823;49.028;8.454;2022-12-31T05:11:22;100257.81;;;18.25;54.43
1652;BME280;823;49.028;8.454;2022-12-31T05:16:22;100285.56;;;18.14;54.79
1652;BME280;823;49.028;8.454;2022-12-31T05:21:23;100281.59;;;18.21;54.72
1652;BME280;823;49.028;8.454;2022-12-31T05:26:23;100273.22;;;18.29;54.56
1652;BME280;823;49.028;8.454;2022-12-31T05:31:23;100284.03;;;18.50;53.87
1652;BME280;823;49.028;8.454;2022-12-31T05:36:24;100293.66;;;18.50;53.94
1652;BME280;823;49.028;8.454;2022-12-31T05:41:24;100295.66;;;18.72;53.17
1652;BME280;823;49.028;8.454;2022-12-31T05:46:24;100303.22;;;18.64;53.11
1652;BME280;823;49.028;8.454;2022-12-31T05:51:24;100313.25;;;18.57;53.47
1652;BME280;823;49.028;8.454;2022-12-31T05:56:25;100312.63;;;18.53;53.41
1652;BME280;823;49.028;8.454;2022-12-31T06:01:25;100309.06;;;18.54;53.06
1652;BME280;823;49.028;8.454;2022-12-31T06:06:25;100308.41;;;18.51;53.38
1652;BME280;823;49.028;8.454;2022-12-31T06:11:26;100314.41;;;18.53;53.05
1652;BME280;823;49.028;8.454;2022-12-31T06:16:26;100305.06;;;18.36;53.28
1652;BME280;823;49.028;8.454;2022-12-31T06:21:27;100317.63;;;18.31;53.09
1652;BME280;823;49.028;8.454;2022-12-31T06:26:28;100314.41;;;18.40;52.88
1652;BME280;823;49.028;8.454;2022-12-31T06:31:28;100319.00;;;18.36;52.99
1652;BME280;823;49.028;8.454;2022-12-31T06:36:28;100329.38;;;18.38;52.78
1652;BME280;823;49.028;8.454;2022-12-31T06:41:30;100328.09;;;18.31;52.83
1652;BME280;823;49.028;8.454;2022-12-31T06:46:30;100332.19;;;18.35;52.56
1652;BME280;823;49.028;8.454;2022-12-31T06:51:30;100332.19;;;18.35;52.56
1652;BME280;823;49.028;8.454;2022-12-31T06:56:31;100328.22;;;18.29;52.78
1652;BME280;823;49.028;8.454;2022-12-31T07:01:39;100327.16;;;18.32;52.70
1652;BME280;823;49.028;8.454;2022-12-31T07:07:05;100318.56;;;18.30;52.68
1652;BME280;823;49.028;8.454;2022-12-31T07:12:27;100323.53;;;18.47;52.18
1652;BME280;823;49.028;8.454;2022-12-31T07:22:57;100347.59;;;18.52;52.15
1652;BME280;823;49.028;8.454;2022-12-31T07:28:22;100340.38;;;18.43;52.09
1652;BME280;823;49.028;8.454;2022-12-31T07:33:39;100363.53;;;18.49;52.08
1652;BME280;823;49.028;8.454;2022-12-31T07:39:21;100371.16;;;18.40;51.94
1652;BME280;823;49.028;8.454;2022-12-31T07:44:34;100384.25;;;18.52;51.73
1652;BME280;823;49.028;8.454;2022-12-31T07:49:38;100387.38;;;18.32;52.46
1652;BME280;823;49.028;8.454;2022-12-31T07:54:42;100390.34;;;18.53;51.49
1652;BME280;823;49.028;8.454;2022-12-31T08:00:10;100383.88;;;18.59;51.42
1652;BME280;823;49.028;8.454;2022-12-31T08:05:34;100382.72;;;18.63;50.84
1652;BME280;823;49.028;8.454;2022-12-31T08:16:17;100413.66;;;18.83;50.54
1652;BME280;823;49.028;8.454;2022-12-31T08:22:13;100414.34;;;19.00;49.83
1652;BME280;823;49.028;8.454;2022-12-31T08:38:04;100421.13;;;19.41;48.62
1652;BME280;823;49.028;8.454;2022-12-31T08:48:39;100423.97;;;19.38;48.50
1652;BME280;823;49.028;8.454;2022-12-31T08:53:41;100430.97;;;19.50;48.24
1652;BME280;823;49.028;8.454;2022-12-31T09:04:05;100437.06;;;19.51;47.66
1652;BME280;823;49.028;8.454;2022-12-31T09:19:33;100438.41;;;19.69;47.12
1652;BME280;823;49.028;8.454;2022-12-31T09:24:34;100430.72;;;19.79;47.14
1652;BME280;823;49.028;8.454;2022-12-31T09:30:00;100441.13;;;19.81;47.27
1652;BME280;823;49.028;8.454;2022-12-31T09:35:11;100437.16;;;19.62;47.17
1652;BME280;823;49.028;8.454;2022-12-31T09:45:59;100460.31;;;20.18;45.98
1652;BME280;823;49.028;8.454;2022-12-31T09:56:16;100452.88;;;20.36;45.84
1652;BME280;823;49.028;8.454;2022-12-31T10:01:28;100459.59;;;20.40;45.60
1652;BME280;823;49.028;8.454;2022-12-31T10:12:40;100450.69;;;20.54;45.34
1652;BME280;823;49.028;8.454;2022-12-31T10:18:10;100452.63;;;20.52;44.98
1652;BME280;823;49.028;8.454;2022-12-31T10:51:03;100426.00;;;21.04;43.21
1652;BME280;823;49.028;8.454;2022-12-31T11:11:52;100427.44;;;20.85;43.69
1652;BME280;823;49.028;8.454;2022-12-31T11:28:14;100410.38;;;21.48;41.48
1652;BME280;823;49.028;8.454;2022-12-31T11:38:52;100406.56;;;21.63;41.10
1652;BME280;823;49.028;8.454;2022-12-31T11:49:48;100403.06;;;21.63;40.67
1652;BME280;823;49.028;8.454;2022-12-31T12:00:25;100390.00;;;21.84;40.68
1652;BME280;823;49.028;8.454;2022-12-31T12:05:27;100392.66;;;21.72;40.87
1652;BME280;823;49.028;8.454;2022-12-31T12:10:51;100388.94;;;21.86;40.05
1652;BME280;823;49.028;8.454;2022-12-31T12:15:54;100383.63;;;21.98;39.91
1652;BME280;823;49.028;8.454;2022-12-31T12:21:02;100394.50;;;22.04;40.02
1652;BME280;823;49.028;8.454;2022-12-31T12:26:05;100384.66;;;22.06;39.66
1652;BME280;823;49.028;8.454;2022-12-31T12:31:05;100391.94;;;22.14;39.87
1652;BME280;823;49.028;8.454;2022-12-31T12:36:11;100386.69;;;22.14;39.24
1652;BME280;823;49.028;8.454;2022-12-31T12:41:21;100383.16;;;21.92;39.46
1652;BME280;823;49.028;8.454;2022-12-31T12:46:37;100375.69;;;22.09;38.97
1652;BME280;823;49.028;8.454;2022-12-31T12:57:15;100374.25;;;22.05;38.92
1652;BME280;823;49.028;8.454;2022-12-31T13:02:34;100363.63;;;21.95;39.22
1652;BME280;823;49.028;8.454;2022-12-31T13:13:35;100353.84;;;22.18;38.77
1652;BME280;823;49.028;8.454;2022-12-31T13:18:53;100349.03;;;22.23;38.47
1652;BME280;823;49.028;8.454;2022-12-31T13:24:14;100343.31;;;22.18;38.25
1652;BME280;823;49.028;8.454;2022-12-31T13:29:21;100350.81;;;22.23;38.40
1652;BME280;823;49.028;8.454;2022-12-31T13:34:28;100331.31;;;22.25;38.53
1652;BME280;823;49.028;8.454;2022-12-31T13:39:35;100338.75;;;22.20;38.76
1652;BME280;823;49.028;8.454;2022-12-31T13:49:45;100335.69;;;22.04;39.05
1652;BME280;823;49.028;8.454;2022-12-31T13:54:55;100338.94;;;22.07;39.46
1652;BME280;823;49.028;8.454;2022-12-31T14:00:01;100345.97;;;22.07;39.83
1652;BME280;823;49.028;8.454;2022-12-31T14:05:13;100343.53;;;22.15;38.98
1652;BME280;823;49.028;8.454;2022-12-31T14:10:20;100341.56;;;22.07;38.99
1652;BME280;823;49.028;8.454;2022-12-31T14:15:32;100344.56;;;22.03;39.05
1652;BME280;823;49.028;8.454;2022-12-31T14:20:46;100340.97;;;22.04;38.95
1652;BME280;823;49.028;8.454;2022-12-31T14:25:50;100345.78;;;21.99;39.10
1652;BME280;823;49.028;8.454;2022-12-31T14:31:07;100357.03;;;22.01;39.27
1652;BME280;823;49.028;8.454;2022-12-31T14:36:32;100359.44;;;21.92;39.16
1652;BME280;823;49.028;8.454;2022-12-31T14:41:52;100356.84;;;21.81;39.65
1652;BME280;823;49.028;8.454;2022-12-31T14:57:38;100360.59;;;21.44;40.07
1652;BME280;823;49.028;8.454;2022-12-31T15:02:48;100362.03;;;21.37;40.56
1652;BME280;823;49.028;8.454;2022-12-31T15:13:26;100349.75;;;21.04;41.10
1652;BME280;823;49.028;8.454;2022-12-31T15:18:40;100355.25;;;21.12;40.44
1652;BME280;823;49.028;8.454;2022-12-31T15:23:42;100353.81;;;20.97;40.97
1652;BME280;823;49.028;8.454;2022-12-31T15:28:43;100360.03;;;20.96;40.90
1652;BME280;823;49.028;8.454;2022-12-31T15:34:06;100363.72;;;21.04;40.37
1652;BME280;823;49.028;8.454;2022-12-31T15:49:45;100368.97;;;20.70;41.13
1652;BME280;823;49.028;8.454;2022-12-31T15:54:51;100373.94;;;20.62;41.29
1652;BME280;823;49.028;8.454;2022-12-31T15:59:58;100375.69;;;20.50;41.78
1652;BME280;823;49.028;8.454;2022-12-31T16:04:59;100383.09;;;20.45;42.07
1652;BME280;823;49.028;8.454;2022-12-31T16:10:01;100390.50;;;20.51;41.65
1652;BME280;823;49.028;8.454;2022-12-31T16:15:02;100401.47;;;20.45;41.97
1652;BME280;823;49.028;8.454;2022-12-31T16:20:22;100408.19;;;20.49;41.89
1652;BME280;823;49.028;8.454;2022-12-31T16:25:26;100401.59;;;20.44;42.10
1652;BME280;823;49.028;8.454;2022-12-31T16:30:28;100405.75;;;20.46;41.73
1652;BME280;823;49.028;8.454;2022-12-31T16:35:34;100414.63;;;20.45;41.92
1652;BME280;823;49.028;8.454;2022-12-31T16:40:39;100415.56;;;20.44;41.70
1652;BME280;823;49.028;8.454;2022-12-31T16:45:40;100418.91;;;20.46;41.73
1652;BME280;823;49.028;8.454;2022-12-31T16:50:43;100418.19;;;20.44;41.83
1652;BME280;823;49.028;8.454;2022-12-31T16:55:54;100414.88;;;20.53;41.40
1652;BME280;823;49.028;8.454;2022-12-31T17:01:03;100419.63;;;20.48;41.41
1652;BME280;823;49.028;8.454;2022-12-31T17:11:25;100423.16;;;20.36;41.54
1652;BME280;823;49.028;8.454;2022-12-31T17:16:27;100422.53;;;20.32;41.66
1652;BME280;823;49.028;8.454;2022-12-31T17:21:29;100426.97;;;20.32;41.67
1652;BME280;823;49.028;8.454;2022-12-31T17:26:32;100432.47;;;20.29;41.64
1652;BME280;823;49.028;8.454;2022-12-31T17:31:36;100418.47;;;20.28;41.55
1652;BME280;823;49.028;8.454;2022-12-31T17:36:38;100417.00;;;20.24;41.82
1652;BME280;823;49.028;8.454;2022-12-31T17:41:43;100424.00;;;20.12;42.01
1652;BME280;823;49.028;8.454;2022-12-31T17:46:44;100421.09;;;20.04;42.11
1652;BME280;823;49.028;8.454;2022-12-31T17:51:44;100425.03;;;19.85;42.75
1652;BME280;823;49.028;8.454;2022-12-31T17:56:45;100424.97;;;19.87;42.68
1652;BME280;823;49.028;8.454;2022-12-31T18:01:46;100435.53;;;19.85;42.59
1652;BME280;823;49.028;8.454;2022-12-31T18:06:47;100439.03;;;19.86;42.36
1652;BME280;823;49.028;8.454;2022-12-31T18:11:47;100445.63;;;19.79;42.69
1652;BME280;823;49.028;8.454;2022-12-31T18:16:47;100445.22;;;19.72;42.91
1652;BME280;823;49.028;8.454;2022-12-31T18:21:47;100445.75;;;19.64;43.16
1652;BME280;823;49.028;8.454;2022-12-31T18:26:48;100452.06;;;19.49;43.39
1652;BME280;823;49.028;8.454;2022-12-31T18:31:48;100452.69;;;19.39;43.76
1652;BME280;823;49.028;8.454;2022-12-31T18:36:49;100462.78;;;19.33;43.90
1652;BME280;823;49.028;8.454;2022-12-31T18:41:49;100465.19;;;19.23;44.33
1652;BME280;823;49.028;8.454;2022-12-31T18:46:50;100454.81;;;19.09;44.55
1652;BME280;823;49.028;8.454;2022-12-31T18:51:50;100429.84;;;18.90;45.13
1652;BME280;823;49.028;8.454;2022-12-31T18:56:54;100442.63;;;18.95;44.86
1652;BME280;823;49.028;8.454;2022-12-31T19:01:54;100445.38;;;18.93;44.83
1652;BME280;823;49.028;8.454;2022-12-31T19:06:55;100449.66;;;18.94;44.74
1652;BME280;823;49.028;8.454;2022-12-31T19:11:55;100449.97;;;18.89;44.96
1652;BME280;823;49.028;8.454;2022-12-31T19:16:56;100452.63;;;18.75;45.40
1652;BME280;823;49.028;8.454;2022-12-31T19:21:57;100453.88;;;18.69;45.50
1652;BME280;823;49.028;8.454;2022-12-31T19:26:59;100445.59;;;18.63;46.05
1652;BME280;823;49.028;8.454;2022-12-31T19:32:00;100459.06;;;18.57;46.40
1652;BME280;823;49.028;8.454;2022-12-31T19:37:01;100451.88;;;18.33;46.53
1652;BME280;823;49.028;8.454;2022-12-31T19:42:01;100452.53;;;18.36;46.49
1652;BME280;823;49.028;8.454;2022-12-31T19:47:01;100443.44;;;18.42;45.88
1652;BME280;823;49.028;8.454;2022-12-31T19:52:02;100437.88;;;18.47;45.75
1652;BME280;823;49.028;8.454;2022-12-31T19:57:02;100434.44;;;18.46;45.90
1652;BME280;823;49.028;8.454;2022-12-31T20:02:03;100433.16;;;18.39;46.23
1652;BME280;823;49.028;8.454;2022-12-31T20:07:03;100442.53;;;18.56;46.11
1652;BME280;823;49.028;8.454;2022-12-31T20:12:03;100443.81;;;18.63;45.97
1652;BME280;823;49.028;8.454;2022-12-31T20:17:04;100463.72;;;18.66;46.00
1652;BME280;823;49.028;8.454;2022-12-31T20:22:04;100469.72;;;18.81;46.12
1652;BME280;823;49.028;8.454;2022-12-31T20:27:05;100473.34;;;18.93;45.35
1652;BME280;823;49.028;8.454;2022-12-31T20:32:08;100478.50;;;18.94;45.58
1652;BME280;823;49.028;8.454;2022-12-31T20:37:08;100479.31;;;18.95;45.57
1652;BME280;823;49.028;8.454;2022-12-31T20:42:08;100485.22;;;19.11;44.92
1652;BME280;823;49.028;8.454;2022-12-31T20:47:08;100485.84;;;19.02;45.33
1652;BME280;823;49.028;8.454;2022-12-31T20:52:09;100484.63;;;18.80;45.67
1652;BME280;823;49.028;8.454;2022-12-31T20:57:09;100487.25;;;18.80;45.97
1652;BME280;823;49.028;8.454;2022-12-31T21:02:13;100493.31;;;18.81;45.88
1652;BME280;823;49.028;8.454;2022-12-31T21:07:14;100490.84;;;18.92;45.32
1652;BME280;823;49.028;8.454;2022-12-31T21:12:14;100482.88;;;18.94;45.19
1652;BME280;823;49.028;8.454;2022-12-31T21:17:33;100487.44;;;18.77;45.61
1652;BME280;823;49.028;8.454;2022-12-31T21:22:33;100487.63;;;18.74;45.62
1652;BME280;823;49.028;8.454;2022-12-31T21:27:34;100497.22;;;18.61;45.83
1652;BME280;823;49.028;8.454;2022-12-31T21:32:34;100495.81;;;18.69;45.67
1652;BME280;823;49.028;8.454;2022-12-31T21:37:35;100495.06;;;18.95;44.40
1652;BME280;823;49.028;8.454;2022-12-31T21:42:35;100508.16;;;18.95;44.61
1652;BME280;823;49.028;8.454;2022-12-31T21:47:35;100505.88;;;19.03;44.34
1652;BME280;823;49.028;8.454;2022-12-31T21:52:54;100505.22;;;18.99;44.43
1652;BME280;823;49.028;8.454;2022-12-31T21:57:54;100508.69;;;19.00;44.12
1652;BME280;823;49.028;8.454;2022-12-31T22:02:55;100513.41;;;18.95;44.37
1652;BME280;823;49.028;8.454;2022-12-31T22:08:14;100521.22;;;18.82;44.83
1652;BME280;823;49.028;8.454;2022-12-31T22:13:15;100524.53;;;18.71;45.28
1652;BME280;823;49.028;8.454;2022-12-31T22:18:15;100526.06;;;18.88;44.47
1652;BME280;823;49.028;8.454;2022-12-31T22:23:16;100524.72;;;18.95;44.51
1652;BME280;823;49.028;8.454;2022-12-31T22:28:16;100524.81;;;18.94;44.80
1652;BME280;823;49.028;8.454;2022-12-31T22:33:16;100528.75;;;18.86;44.84
1652;BME280;823;49.028;8.454;2022-12-31T22:38:17;100534.56;;;18.92;44.96
1652;BME280;823;49.028;8.454;2022-12-31T22:43:17;100542.09;;;18.69;45.24
1652;BME280;823;49.028;8.454;2022-12-31T22:48:17;100544.47;;;18.86;44.71
1652;BME280;823;49.028;8.454;2022-12-31T22:53:18;100555.22;;;18.96;44.34
1652;BME280;823;49.028;8.454;2022-12-31T22:58:18;100557.41;;;18.89;44.28
1652;BME280;823;49.028;8.454;2022-12-31T23:03:19;100564.53;;;18.87;44.59
1652;BME280;823;49.028;8.454;2022-12-31T23:08:20;100570.25;;;18.80;44.72
1652;BME280;823;49.028;8.454;2022-12-31T23:13:20;100571.69;;;18.71;44.43
1652;BME280;823;49.028;8.454;2022-12-31T23:18:39;100574.75;;;18.78;44.66
1652;BME280;823;49.028;8.454;2022-12-31T23:23:58;100580.50;;;18.83;44.57
1652;BME280;823;49.028;8.454;2022-12-31T23:28:59;100570.78;;;18.85;43.64
1652;BME280;823;49.028;8.454;2022-12-31T23:33:59;100576.31;;;18.95;43.66
1652;BME280;823;49.028;8.454;2022-12-31T23:39:00;100567.41;;;18.97;44.02
1652;BME280;823;49.028;8.454;2022-12-31T23:44:00;100561.63;;;19.05;43.46
1652;BME280;823;49.028;8.454;2022-12-31T23:49:00;100573.25;;;19.01;43.38
1652;BME280;823;49.028;8.454;2022-12-31T23:54:02;100575.28;;;19.10;43.12
1652;BME280;823;49.028;8.454;2022-12-31T23:59:03;100569.31;;;19.08;43.33
